createdAt,value
2018-12-17T00:02:14.954Z,68.01
2018-12-17T00:04:47.724Z,69.57
2018-12-17T00:07:20.404Z,69.29
2018-12-17T00:09:51.134Z,70.05
2018-12-17T00:12:22.122Z,69.79
2018-12-17T00:14:54.870Z,68.56
2018-12-17T00:17:28.540Z,68.56
2018-12-17T00:19:59.079Z,67.35
2018-12-17T00:22:29.667Z,68.87
2018-12-17T00:25:00.357Z,68.58
2018-12-17T00:27:30.898Z,68.66
2018-12-17T00:30:01.535Z,67.88
2018-12-17T00:32:32.382Z,68.00
2018-12-17T00:35:03.149Z,68.83
2018-12-17T00:37:33.883Z,69.20
2018-12-17T00:42:49.374Z,69.58
2018-12-17T00:45:20.370Z,68.58
2018-12-17T00:47:51.061Z,68.37
2018-12-17T00:50:21.557Z,67.77
2018-12-17T00:52:52.052Z,68.17
2018-12-17T00:55:22.549Z,68.60
2018-12-17T00:57:53.106Z,69.55
2018-12-17T01:00:23.617Z,68.62
2018-12-17T01:02:54.486Z,68.99
2018-12-17T01:05:25.018Z,69.22
2018-12-17T01:07:55.510Z,68.88
2018-12-17T01:10:26.042Z,68.45
2018-12-17T01:12:57.491Z,68.41
2018-12-17T01:15:27.957Z,68.09
2018-12-17T01:17:58.521Z,67.45
2018-12-17T01:20:28.962Z,68.27
2018-12-17T01:22:59.499Z,68.88
2018-12-17T01:25:30.024Z,68.63
2018-12-17T01:28:00.629Z,68.28
2018-12-17T01:30:31.251Z,68.21
2018-12-17T01:33:01.809Z,67.41
2018-12-17T01:35:32.340Z,68.27
2018-12-17T01:38:02.902Z,70.24
2018-12-17T01:40:33.598Z,70.96
2018-12-17T01:43:04.173Z,69.50
2018-12-17T01:45:34.721Z,68.19
2018-12-17T01:48:05.318Z,69.22
2018-12-17T01:50:35.852Z,69.23
2018-12-17T01:53:06.410Z,70.15
2018-12-17T01:55:37.212Z,69.32
2018-12-17T01:58:07.683Z,68.17
2018-12-17T02:00:39.462Z,68.72
2018-12-17T02:03:09.958Z,68.53
2018-12-17T02:05:40.539Z,68.54
2018-12-17T02:08:11.077Z,68.07
2018-12-17T02:10:48.143Z,68.04
2018-12-17T02:13:18.710Z,68.89
2018-12-17T02:15:49.202Z,69.61
2018-12-17T02:18:19.775Z,69.54
2018-12-17T02:20:50.269Z,70.00
2018-12-17T02:23:20.873Z,69.47
2018-12-17T02:25:51.538Z,68.83
2018-12-17T02:28:22.097Z,68.43
2018-12-17T02:30:52.613Z,68.34
2018-12-17T02:33:23.153Z,68.84
2018-12-17T02:35:53.663Z,68.87
2018-12-17T02:38:24.324Z,68.08
2018-12-17T02:40:54.882Z,68.08
2018-12-17T02:43:25.417Z,69.37
2018-12-17T02:45:55.912Z,68.13
2018-12-17T02:48:26.468Z,68.27
2018-12-17T02:50:57.060Z,68.90
2018-12-17T02:53:27.728Z,69.57
2018-12-17T02:55:58.246Z,67.92
2018-12-17T02:58:28.784Z,67.76
2018-12-17T03:00:59.333Z,69.00
2018-12-17T03:03:29.842Z,68.40
2018-12-17T03:06:00.609Z,67.58
2018-12-17T03:08:31.136Z,68.05
2018-12-17T03:11:01.710Z,69.03
2018-12-17T03:13:32.285Z,68.09
2018-12-17T03:16:02.880Z,67.22
2018-12-17T03:18:33.440Z,68.76
2018-12-17T03:21:04.031Z,67.79
2018-12-17T03:23:34.575Z,67.43
2018-12-17T03:26:05.108Z,68.22
2018-12-17T03:28:35.626Z,68.32
2018-12-17T03:31:06.195Z,69.31
2018-12-17T03:33:36.949Z,69.75
2018-12-17T03:36:07.486Z,69.58
2018-12-17T03:38:38.008Z,69.39
2018-12-17T03:41:08.614Z,70.08
2018-12-17T03:43:39.203Z,68.80
2018-12-17T03:46:09.741Z,70.19
2018-12-17T03:48:40.281Z,70.46
2018-12-17T03:51:10.849Z,72.84
2018-12-17T03:53:41.374Z,71.11
2018-12-17T03:56:11.931Z,69.58
2018-12-17T03:58:42.454Z,69.61
2018-12-17T04:01:12.932Z,69.62
2018-12-17T04:03:43.466Z,70.91
2018-12-17T04:06:13.943Z,70.32
2018-12-17T04:08:44.482Z,70.75
2018-12-17T04:11:15.039Z,71.67
2018-12-17T04:13:45.584Z,70.65
2018-12-17T04:16:16.154Z,69.55
2018-12-17T04:18:46.692Z,68.84
2018-12-17T04:21:17.323Z,68.93
2018-12-17T04:23:47.856Z,69.05
2018-12-17T04:26:20.395Z,69.86
2018-12-17T04:28:50.904Z,70.12
2018-12-17T04:31:21.481Z,70.11
2018-12-17T04:33:52.091Z,69.22
2018-12-17T04:36:22.681Z,69.27
2018-12-17T04:38:53.288Z,70.88
2018-12-17T04:41:23.912Z,71.23
2018-12-17T04:43:54.495Z,70.88
2018-12-17T04:46:25.150Z,69.59
2018-12-17T04:48:55.734Z,69.34
2018-12-17T04:51:26.394Z,69.96
2018-12-17T04:53:56.885Z,71.09
2018-12-17T04:56:27.438Z,71.34
2018-12-17T04:58:57.945Z,71.92
2018-12-17T05:01:28.521Z,70.13
2018-12-17T05:03:59.057Z,68.77
2018-12-17T05:06:29.660Z,68.53
2018-12-17T05:09:00.282Z,70.64
2018-12-17T05:11:30.975Z,69.53
2018-12-17T05:14:01.736Z,71.91
2018-12-17T05:16:33.354Z,73.76
2018-12-17T05:19:03.858Z,73.26
2018-12-17T05:21:34.444Z,71.71
2018-12-17T05:24:04.958Z,71.98
2018-12-17T05:26:35.515Z,70.32
2018-12-17T05:29:06.111Z,70.79
2018-12-17T05:31:36.719Z,70.30
2018-12-17T05:34:07.267Z,71.21
2018-12-17T05:36:37.774Z,69.92
2018-12-17T05:39:08.686Z,69.98
2018-12-17T05:41:39.339Z,69.59
2018-12-17T05:44:09.881Z,70.90
2018-12-17T05:46:40.489Z,70.01
2018-12-17T05:49:11.255Z,69.46
2018-12-17T05:51:41.821Z,70.14
2018-12-17T05:54:12.503Z,70.29
2018-12-17T05:56:43.130Z,69.90
2018-12-17T05:59:13.650Z,69.50
2018-12-17T06:01:44.255Z,71.17
2018-12-17T06:04:14.853Z,70.21
2018-12-17T06:06:45.452Z,70.32
2018-12-17T06:09:16.698Z,70.27
2018-12-17T06:11:47.345Z,71.92
2018-12-17T06:14:17.946Z,71.84
2018-12-17T06:16:48.510Z,70.45
2018-12-17T06:19:19.194Z,72.92
2018-12-17T06:21:49.742Z,72.85
2018-12-17T06:24:20.888Z,73.88
2018-12-17T06:26:51.382Z,74.48
2018-12-17T06:29:21.931Z,72.75
2018-12-17T06:31:52.505Z,71.41
2018-12-17T06:34:26.098Z,70.37
2018-12-17T06:36:57.897Z,70.82
2018-12-17T06:39:28.395Z,69.98
2018-12-17T06:41:58.966Z,69.57
2018-12-17T06:44:29.527Z,69.97
2018-12-17T06:47:00.145Z,70.80
2018-12-17T06:49:30.714Z,70.43
2018-12-17T06:52:01.409Z,70.97
2018-12-17T06:54:31.995Z,70.29
2018-12-17T06:57:02.586Z,70.86
2018-12-17T06:59:33.153Z,71.36
2018-12-17T07:02:04.142Z,71.18
2018-12-17T07:04:34.663Z,71.91
2018-12-17T07:07:05.211Z,71.53
2018-12-17T07:09:35.701Z,71.53
2018-12-17T07:12:06.274Z,73.86
2018-12-17T07:14:36.868Z,75.12
2018-12-17T07:17:07.500Z,76.65
2018-12-17T07:19:38.136Z,75.27
2018-12-17T07:22:08.732Z,76.07
2018-12-17T07:24:39.333Z,76.08
2018-12-17T07:27:09.924Z,75.84
2018-12-17T07:29:40.513Z,73.89
2018-12-17T07:32:11.080Z,73.62
2018-12-17T07:34:42.089Z,72.31
2018-12-17T07:37:12.704Z,70.96
2018-12-17T07:39:43.598Z,71.90
2018-12-17T07:42:14.117Z,71.69
2018-12-17T07:44:44.610Z,71.94
2018-12-17T07:47:15.180Z,71.93
2018-12-17T07:49:45.707Z,71.14
2018-12-17T07:52:16.242Z,70.52
2018-12-17T07:54:46.834Z,70.40
2018-12-17T07:57:17.296Z,70.95
2018-12-17T07:59:47.945Z,70.97
2018-12-17T08:02:18.546Z,71.99
2018-12-17T08:04:49.130Z,69.43
2018-12-17T08:07:19.675Z,70.30
2018-12-17T08:09:50.207Z,69.59
2018-12-17T08:12:20.718Z,71.43
2018-12-17T08:14:51.484Z,74.68
2018-12-17T08:17:21.994Z,71.03
2018-12-17T08:19:52.630Z,69.37
2018-12-17T08:22:23.355Z,71.03
2018-12-17T08:24:53.846Z,72.03
2018-12-17T08:27:24.314Z,71.24
2018-12-17T08:29:54.863Z,69.92
2018-12-17T08:32:25.486Z,73.55
2018-12-17T08:34:55.984Z,72.38
2018-12-17T08:37:26.482Z,68.71
2018-12-17T08:39:56.975Z,69.04
2018-12-17T08:42:27.509Z,72.49
2018-12-17T08:44:58.018Z,72.83
2018-12-17T08:47:28.529Z,71.27
2018-12-17T08:49:59.015Z,71.23
2018-12-17T08:52:30.443Z,68.43
2018-12-17T08:55:01.212Z,69.06
2018-12-17T08:57:37.817Z,71.02
2018-12-17T09:00:10.775Z,70.48
2018-12-17T09:02:37.277Z,72.40
2018-12-17T09:05:07.802Z,69.06
2018-12-17T09:07:38.572Z,68.84
2018-12-17T09:10:09.576Z,67.52
2018-12-17T09:12:40.088Z,67.16
2018-12-17T09:15:10.584Z,72.26
2018-12-17T09:17:41.170Z,68.64
2018-12-17T09:20:11.673Z,70.54
2018-12-17T09:22:42.220Z,69.99
2018-12-17T09:25:12.729Z,67.05
2018-12-17T09:27:43.356Z,67.48
2018-12-17T09:30:20.591Z,66.00
2018-12-17T09:32:51.332Z,64.87
2018-12-17T09:35:21.815Z,65.90
2018-12-17T09:37:52.337Z,65.14
2018-12-17T09:40:22.824Z,65.84
2018-12-17T09:42:53.417Z,66.80
2018-12-17T09:45:23.925Z,67.67
2018-12-17T09:47:54.452Z,69.21
2018-12-17T09:50:24.994Z,69.66
2018-12-17T09:52:55.555Z,68.43
2018-12-17T09:55:26.274Z,67.80
2018-12-17T09:57:56.785Z,66.37
2018-12-17T10:00:27.830Z,67.43
2018-12-17T10:02:58.323Z,65.18
2018-12-17T10:05:28.878Z,64.92
2018-12-17T10:08:00.562Z,63.67
2018-12-17T10:10:31.426Z,63.11
2018-12-17T10:13:02.295Z,61.52
2018-12-17T10:15:32.986Z,60.44
2018-12-17T10:18:03.785Z,61.23
2018-12-17T10:20:39.007Z,59.94
2018-12-17T10:23:10.827Z,59.05
2018-12-17T10:25:42.396Z,60.43
2018-12-17T10:28:12.931Z,56.99
2018-12-17T10:30:43.757Z,58.52
2018-12-17T10:33:14.223Z,59.76
2018-12-17T10:35:44.791Z,63.47
2018-12-17T10:38:15.399Z,64.91
2018-12-17T10:40:45.966Z,65.70
2018-12-17T10:43:16.655Z,61.09
2018-12-17T10:45:47.186Z,60.48
2018-12-17T10:48:17.815Z,60.30
2018-12-17T10:50:49.417Z,62.25
2018-12-17T10:53:19.949Z,61.85
2018-12-17T10:55:50.550Z,62.69
2018-12-17T10:58:21.122Z,60.23
2018-12-17T11:00:56.819Z,58.72
2018-12-17T11:03:31.532Z,62.18
2018-12-17T11:06:05.672Z,62.43
2018-12-17T11:08:36.323Z,60.74
2018-12-17T11:11:06.855Z,63.86
2018-12-17T11:13:37.978Z,65.54
2018-12-17T11:16:08.598Z,62.43
2018-12-17T11:18:39.280Z,62.14
2018-12-17T11:21:09.901Z,62.44
2018-12-17T11:23:40.488Z,62.68
2018-12-17T11:26:10.997Z,61.90
2018-12-17T11:28:41.883Z,62.20
2018-12-17T11:31:12.385Z,65.25
2018-12-17T11:33:42.996Z,64.59
2018-12-17T11:36:14.108Z,62.50
2018-12-17T11:38:44.634Z,62.50
2018-12-17T11:41:16.257Z,63.19
2018-12-17T11:43:46.823Z,63.96
2018-12-17T11:46:18.834Z,65.18
2018-12-17T11:48:49.455Z,64.30
2018-12-17T11:51:19.950Z,64.77
2018-12-17T11:53:50.463Z,67.36
2018-12-17T11:56:21.933Z,64.54
2018-12-17T11:58:52.437Z,65.87
2018-12-17T12:01:25.929Z,64.65
2018-12-17T12:03:56.532Z,63.76
2018-12-17T12:06:27.069Z,64.61
2018-12-17T12:08:57.595Z,66.74
2018-12-17T12:11:28.093Z,64.92
2018-12-17T12:13:58.702Z,65.26
2018-12-17T12:16:29.191Z,65.29
2018-12-17T12:18:59.695Z,64.83
2018-12-17T12:21:30.263Z,64.21
2018-12-17T12:24:00.892Z,65.55
2018-12-17T12:26:31.510Z,65.33
2018-12-17T12:29:03.469Z,64.89
2018-12-17T12:31:34.833Z,64.56
2018-12-17T12:34:05.635Z,64.67
2018-12-17T12:36:36.114Z,64.13
2018-12-17T12:39:08.766Z,65.14
2018-12-17T12:41:42.179Z,64.56
2018-12-17T12:44:12.825Z,64.60
2018-12-17T12:46:43.386Z,65.05
2018-12-17T12:49:15.016Z,64.43
2018-12-17T12:51:45.509Z,65.95
2018-12-17T12:54:16.080Z,65.91
2018-12-17T12:56:46.735Z,64.85
2018-12-17T12:59:17.464Z,65.78
2018-12-17T13:01:47.970Z,66.62
2018-12-17T13:04:18.579Z,65.71
2018-12-17T13:06:49.219Z,66.27
2018-12-17T13:09:22.864Z,65.60
2018-12-17T13:11:53.414Z,66.28
2018-12-17T13:14:24.038Z,67.96
2018-12-17T13:17:05.481Z,66.92
2018-12-17T13:19:35.930Z,69.12
2018-12-17T13:22:06.453Z,67.88
2018-12-17T13:24:36.934Z,67.90
2018-12-17T13:27:07.485Z,68.39
2018-12-17T13:29:38.073Z,68.11
2018-12-17T13:32:08.602Z,67.96
2018-12-17T13:34:39.103Z,68.23
2018-12-17T13:37:09.581Z,67.68
2018-12-17T13:39:41.021Z,69.65
2018-12-17T13:42:12.776Z,71.77
2018-12-17T13:44:43.329Z,70.66
2018-12-17T13:47:13.845Z,69.22
2018-12-17T13:49:51.805Z,69.54
2018-12-17T13:52:27.534Z,69.03
2018-12-17T13:54:58.097Z,68.08
2018-12-17T13:57:28.615Z,68.87
2018-12-17T13:59:59.103Z,69.55
2018-12-17T14:02:29.580Z,70.37
2018-12-17T14:05:00.090Z,69.87
2018-12-17T14:07:30.641Z,70.21
2018-12-17T14:11:06.523Z,69.51
2018-12-17T14:13:37.017Z,69.74
2018-12-17T14:16:12.831Z,69.01
2018-12-17T14:18:49.658Z,69.82
2018-12-17T14:21:25.303Z,69.99
2018-12-17T14:23:57.423Z,70.63
2018-12-17T14:26:28.142Z,70.15
2018-12-17T14:28:58.945Z,69.84
2018-12-17T14:31:33.020Z,70.23
2018-12-17T14:34:03.990Z,70.52
2018-12-17T14:36:34.538Z,69.77
2018-12-17T14:39:06.822Z,70.61
2018-12-17T14:41:38.830Z,69.45
2018-12-17T14:44:14.495Z,69.93
2018-12-17T14:46:50.247Z,70.33
2018-12-17T14:49:21.116Z,70.82
2018-12-17T14:51:51.741Z,71.53
2018-12-17T14:54:22.237Z,74.73
2018-12-17T14:56:52.774Z,76.38
2018-12-17T14:59:24.041Z,76.08
2018-12-17T15:01:54.560Z,73.05
2018-12-17T15:04:25.073Z,73.59
2018-12-17T15:06:55.589Z,73.25
2018-12-17T15:09:26.114Z,73.10
2018-12-17T15:11:56.661Z,72.47
2018-12-17T15:14:27.284Z,72.97
2018-12-17T15:16:57.794Z,73.64
2018-12-17T15:19:28.297Z,72.62
2018-12-17T15:21:58.785Z,73.09
2018-12-17T15:24:29.306Z,73.00
2018-12-17T15:26:59.870Z,72.65
2018-12-17T15:29:30.449Z,72.64
2018-12-17T15:32:03.832Z,72.03
2018-12-17T15:34:34.494Z,72.91
2018-12-17T15:37:06.858Z,72.42
2018-12-17T15:39:37.570Z,72.77
2018-12-17T15:42:08.537Z,74.59
2018-12-17T15:44:39.144Z,75.90
2018-12-17T15:47:09.779Z,75.08
2018-12-17T15:49:40.369Z,76.48
2018-12-17T15:52:10.897Z,76.65
2018-12-17T15:54:41.582Z,76.29
2018-12-17T15:57:12.286Z,78.57
2018-12-17T15:59:42.937Z,75.77
2018-12-17T16:02:13.513Z,76.98
2018-12-17T16:04:44.086Z,76.26
2018-12-17T16:07:14.724Z,74.87
2018-12-17T16:09:54.376Z,74.51
2018-12-17T16:12:25.257Z,73.92
2018-12-17T16:14:55.886Z,73.53
2018-12-17T16:17:26.551Z,74.75
2018-12-17T16:19:57.233Z,73.81
2018-12-17T16:22:28.079Z,73.85
2018-12-17T16:24:58.750Z,73.38
2018-12-17T16:27:29.736Z,77.01
2018-12-17T16:30:00.281Z,74.89
2018-12-17T16:32:30.838Z,75.96
2018-12-17T16:35:01.518Z,76.60
2018-12-17T16:37:32.410Z,77.48
2018-12-17T16:40:03.128Z,77.81
2018-12-17T16:42:33.694Z,77.70
2018-12-17T16:45:04.712Z,75.89
2018-12-17T16:47:35.172Z,74.59
2018-12-17T16:50:08.301Z,75.47
2018-12-17T16:52:39.110Z,74.67
2018-12-17T16:55:09.589Z,74.06
2018-12-17T16:57:40.371Z,73.55
2018-12-17T17:00:11.065Z,73.46
2018-12-17T17:02:42.209Z,73.50
2018-12-17T17:05:14.358Z,73.87
2018-12-17T17:07:44.977Z,74.28
2018-12-17T17:10:15.598Z,74.92
2018-12-17T17:12:46.132Z,75.03
2018-12-17T17:15:17.118Z,75.56
2018-12-17T17:17:47.664Z,74.28
2018-12-17T17:20:19.802Z,73.75
2018-12-17T17:22:50.849Z,74.64
2018-12-17T17:25:21.693Z,74.56
2018-12-17T17:27:52.303Z,74.09
2018-12-17T17:30:23.030Z,75.01
2018-12-17T17:32:54.213Z,73.92
2018-12-17T17:35:24.895Z,74.94
2018-12-17T17:37:55.496Z,74.29
2018-12-17T17:40:26.064Z,74.46
2018-12-17T17:42:56.701Z,75.70
2018-12-17T17:45:27.397Z,75.69
2018-12-17T17:47:58.132Z,75.76
2018-12-17T17:50:29.174Z,74.78
2018-12-17T17:52:59.763Z,75.07
2018-12-17T17:55:30.333Z,74.08
2018-12-17T17:58:00.878Z,73.91
2018-12-17T18:00:31.522Z,73.60
2018-12-17T18:03:02.102Z,73.71
2018-12-17T18:05:32.679Z,73.56
2018-12-17T21:02:08.563Z,56.13
2018-12-17T21:04:39.996Z,63.54
2018-12-17T21:07:11.518Z,66.77
2018-12-17T21:09:45.260Z,66.18
2018-12-17T21:12:16.309Z,65.87
2018-12-17T21:14:58.285Z,68.65
2018-12-17T21:33:50.885Z,64.60
2018-12-17T21:36:21.478Z,62.91
2018-12-17T21:42:02.695Z,63.00
2018-12-17T21:44:33.258Z,62.77
2018-12-17T21:47:03.977Z,63.45
2018-12-17T21:49:34.567Z,67.76
2018-12-17T21:52:05.241Z,67.55
2018-12-17T21:54:35.827Z,64.47
2018-12-17T21:57:06.481Z,66.65
2018-12-17T21:59:37.057Z,67.86
2018-12-17T22:02:07.868Z,63.61
2018-12-17T22:04:38.535Z,66.72
2018-12-17T22:07:10.485Z,63.94
2018-12-17T22:09:41.204Z,62.63
2018-12-17T22:12:11.671Z,63.29
2018-12-17T22:14:42.378Z,63.26
2018-12-17T22:17:13.114Z,65.31
2018-12-17T22:19:43.782Z,64.70
2018-12-17T22:22:14.705Z,62.85
2018-12-17T22:24:45.287Z,62.17
2018-12-17T22:27:15.837Z,61.68
2018-12-17T22:29:46.558Z,61.10
2018-12-17T22:32:17.175Z,63.77
2018-12-17T22:34:47.777Z,65.27
2018-12-17T22:37:18.330Z,64.67
2018-12-17T22:39:48.958Z,61.35
2018-12-17T22:42:19.525Z,61.69
2018-12-17T22:44:50.044Z,61.02
2018-12-17T22:47:20.754Z,61.12
2018-12-17T22:49:51.789Z,64.24
2018-12-17T22:52:22.324Z,63.54
2018-12-17T22:54:52.958Z,62.12
2018-12-17T22:57:23.488Z,61.35
2018-12-17T22:59:54.103Z,62.74
2018-12-17T23:02:24.629Z,67.01
2018-12-17T23:04:58.051Z,67.11
2018-12-17T23:07:32.872Z,66.30
2018-12-17T23:10:21.265Z,65.12
2018-12-17T23:13:08.664Z,63.93
2018-12-17T23:15:55.869Z,66.41
2018-12-17T23:21:06.927Z,71.32
2018-12-17T23:23:39.591Z,68.86
2018-12-17T23:26:11.409Z,65.19
2018-12-17T23:28:42.118Z,66.51
2018-12-17T23:31:12.702Z,68.83
2018-12-17T23:33:43.234Z,69.96
2018-12-17T23:36:13.763Z,64.42
2018-12-17T23:38:44.255Z,64.17
2018-12-17T23:41:14.795Z,63.93
2018-12-17T23:43:45.314Z,63.73
2018-12-17T23:46:15.857Z,63.94
2018-12-17T23:48:46.334Z,66.87
2018-12-17T23:51:17.298Z,68.56
2018-12-17T23:53:48.908Z,65.54
2018-12-17T23:56:19.614Z,63.60
2018-12-17T23:58:50.164Z,66.59
